sensor_id;sensor_type;location;lat;lon;timestamp;pressure;altitude;pressure_sealevel;temperature
48628;BMP280;34424;52.234;6.500;2024-02-28T00:00:06;101905.9;;;0.24543
48628;BMP280;34424;52.234;6.500;2024-02-28T00:05:05;101893.5;;;0.334297
48628;BMP280;34424;52.234;6.500;2024-02-28T00:10:05;101893.2;;;0.216719
48628;BMP280;34424;52.234;6.500;2024-02-28T00:15:05;101886.4;;;0.161836
48628;BMP280;34424;52.234;6.500;2024-02-28T00:20:06;101890.4;;;0.135664
48628;BMP280;34424;52.234;6.500;2024-02-28T00:25:05;101898.3;;;0.18
48628;BMP280;34424;52.234;6.500;2024-02-28T00:30:06;101882.7;;;0.216719
48628;BMP280;34424;52.234;6.500;2024-02-28T00:35:05;101882.8;;;0.221992
48628;BMP280;34424;52.234;6.500;2024-02-28T00:40:07;101891.2;;;0.287227
48628;BMP280;34424;52.234;6.500;2024-02-28T00:45:07;101887.8;;;0.303047
48628;BMP280;34424;52.234;6.500;2024-02-28T00:50:05;101886.3;;;0.263789
48628;BMP280;34424;52.234;6.500;2024-02-28T00:55:06;101895.9;;;0.287227
48628;BMP280;34424;52.234;6.500;2024-02-28T01:00:06;101889.4;;;0.224531
48628;BMP280;34424;52.234;6.500;2024-02-28T01:05:05;101884.5;;;0.190547
48628;BMP280;34424;52.234;6.500;2024-02-28T01:10:06;101883.3;;;0.140938
48628;BMP280;34424;52.234;6.500;2024-02-28T01:15:06;101877.7;;;0.188008
48628;BMP280;34424;52.234;6.500;2024-02-28T01:20:06;101872.5;;;0.289961
48628;BMP280;34424;52.234;6.500;2024-02-28T01:25:05;101869.1;;;0.258516
48628;BMP280;34424;52.234;6.500;2024-02-28T01:30:06;101867.7;;;0.305586
48628;BMP280;34424;52.234;6.500;2024-02-28T01:35:07;101868.6;;;0.232344
48628;BMP280;34424;52.234;6.500;2024-02-28T01:40:06;101870;;;0.274141
48628;BMP280;34424;52.234;6.500;2024-02-28T01:45:06;101867.2;;;0.334297
48628;BMP280;34424;52.234;6.500;2024-02-28T01:50:05;101868.9;;;0.250703
48628;BMP280;34424;52.234;6.500;2024-02-28T01:55:05;101872.8;;;0.323945
48628;BMP280;34424;52.234;6.500;2024-02-28T02:00:06;101878.4;;;0.378828
48628;BMP280;34424;52.234;6.500;2024-02-28T02:05:05;101882.7;;;0.347383
48628;BMP280;34424;52.234;6.500;2024-02-28T02:10:05;101883.6;;;0.303047
48628;BMP280;34424;52.234;6.500;2024-02-28T02:15:06;101884.2;;;0.313398
48628;BMP280;34424;52.234;6.500;2024-02-28T02:20:06;101880;;;0.240156
48628;BMP280;34424;52.234;6.500;2024-02-28T02:25:06;101879.8;;;0.313398
48628;BMP280;34424;52.234;6.500;2024-02-28T02:30:06;101881;;;0.347383
48628;BMP280;34424;52.234;6.500;2024-02-28T02:35:05;101879.5;;;0.344844
48628;BMP280;34424;52.234;6.500;2024-02-28T02:40:06;101873.8;;;0.342109
48628;BMP280;34424;52.234;6.500;2024-02-28T02:45:06;101875.8;;;0.368281
48628;BMP280;34424;52.234;6.500;2024-02-28T02:50:05;101880.6;;;0.384102
48628;BMP280;34424;52.234;6.500;2024-02-28T02:55:05;101880.6;;;0.352656
48628;BMP280;34424;52.234;6.500;2024-02-28T03:00:06;101881.5;;;0.352656
48628;BMP280;34424;52.234;6.500;2024-02-28T03:05:06;101889.6;;;0.470234
48628;BMP280;34424;52.234;6.500;2024-02-28T03:10:06;101889.1;;;0.441523
48628;BMP280;34424;52.234;6.500;2024-02-28T03:15:06;101887.4;;;0.368281
48628;BMP280;34424;52.234;6.500;2024-02-28T03:20:06;101892.5;;;0.472969
48628;BMP280;34424;52.234;6.500;2024-02-28T03:25:06;101890.2;;;0.486055
48628;BMP280;34424;52.234;6.500;2024-02-28T03:30:06;101886.3;;;0.363008
48628;BMP280;34424;52.234;6.500;2024-02-28T03:35:06;101887.2;;;0.232344
48628;BMP280;34424;52.234;6.500;2024-02-28T03:40:06;101881.8;;;0.289961
48628;BMP280;34424;52.234;6.500;2024-02-28T03:45:06;101886.3;;;0.504219
48628;BMP280;34424;52.234;6.500;2024-02-28T03:50:06;101877.4;;;0.527852
48628;BMP280;34424;52.234;6.500;2024-02-28T03:55:06;101877.2;;;0.45207
48628;BMP280;34424;52.234;6.500;2024-02-28T04:00:06;101884.3;;;0.43625
48628;BMP280;34424;52.234;6.500;2024-02-28T04:05:06;101883.6;;;0.412813
48628;BMP280;34424;52.234;6.500;2024-02-28T04:10:06;101886.5;;;0.337031
48628;BMP280;34424;52.234;6.500;2024-02-28T04:15:06;101890.9;;;0.45207
48628;BMP280;34424;52.234;6.500;2024-02-28T04:20:07;101890.3;;;0.418086
48628;BMP280;34424;52.234;6.500;2024-02-28T04:25:06;101883.2;;;0.472969
48628;BMP280;34424;52.234;6.500;2024-02-28T04:30:06;101892.2;;;0.462422
48628;BMP280;34424;52.234;6.500;2024-02-28T04:35:05;101892.4;;;0.527852
48628;BMP280;34424;52.234;6.500;2024-02-28T04:40:06;101890.1;;;0.569648
48628;BMP280;34424;52.234;6.500;2024-02-28T04:45:06;101899.7;;;0.619258
48628;BMP280;34424;52.234;6.500;2024-02-28T04:50:06;101899.8;;;0.522578
48628;BMP280;34424;52.234;6.500;2024-02-28T04:55:06;101899.7;;;0.454609
48628;BMP280;34424;52.234;6.500;2024-02-28T05:00:06;101903.3;;;0.441523
48628;BMP280;34424;52.234;6.500;2024-02-28T05:05:06;101910.7;;;0.431172
48628;BMP280;34424;52.234;6.500;2024-02-28T05:10:06;101918.5;;;0.402266
48628;BMP280;34424;52.234;6.500;2024-02-28T05:15:06;101914.2;;;0.313398
48628;BMP280;34424;52.234;6.500;2024-02-28T05:20:06;101918.8;;;0.271602
48628;BMP280;34424;52.234;6.500;2024-02-28T05:25:06;101915.9;;;0.360469
48628;BMP280;34424;52.234;6.500;2024-02-28T05:30:06;101914.3;;;0.410078
48628;BMP280;34424;52.234;6.500;2024-02-28T05:35:06;101920.2;;;0.326484
48628;BMP280;34424;52.234;6.500;2024-02-28T05:40:06;101919.8;;;0.394453
48628;BMP280;34424;52.234;6.500;2024-02-28T05:45:06;101924.5;;;0.444063
48628;BMP280;34424;52.234;6.500;2024-02-28T05:50:06;101919.5;;;0.512227
48628;BMP280;34424;52.234;6.500;2024-02-28T05:55:06;101922.2;;;0.486055
48628;BMP280;34424;52.234;6.500;2024-02-28T06:00:06;101930.8;;;0.567109
48628;BMP280;34424;52.234;6.500;2024-02-28T06:05:06;101932.5;;;0.671602
48628;BMP280;34424;52.234;6.500;2024-02-28T06:10:06;101932;;;0.650703
48628;BMP280;34424;52.234;6.500;2024-02-28T06:15:06;101934.8;;;0.718672
48628;BMP280;34424;52.234;6.500;2024-02-28T06:20:06;101937.5;;;0.778828
48628;BMP280;34424;52.234;6.500;2024-02-28T06:25:06;101940.3;;;0.653242
48628;BMP280;34424;52.234;6.500;2024-02-28T06:30:06;101950.4;;;0.627266
48628;BMP280;34424;52.234;6.500;2024-02-28T06:35:06;101958.9;;;0.716133
48628;BMP280;34424;52.234;6.500;2024-02-28T06:40:06;101959.3;;;0.64543
48628;BMP280;34424;52.234;6.500;2024-02-28T06:45:06;101970.7;;;0.671602
48628;BMP280;34424;52.234;6.500;2024-02-28T06:50:06;101975.9;;;0.747383
48628;BMP280;34424;52.234;6.500;2024-02-28T06:55:06;101980.7;;;0.805
48628;BMP280;34424;52.234;6.500;2024-02-28T07:00:06;101977.5;;;0.831172
48628;BMP280;34424;52.234;6.500;2024-02-28T07:05:06;101987.2;;;0.857344
48628;BMP280;34424;52.234;6.500;2024-02-28T07:10:06;101983;;;0.90168
48628;BMP280;34424;52.234;6.500;2024-02-28T07:15:06;101984.6;;;0.893867
48628;BMP280;34424;52.234;6.500;2024-02-28T07:20:06;101975.8;;;0.872969
48628;BMP280;34424;52.234;6.500;2024-02-28T07:25:06;101992.5;;;0.990547
48628;BMP280;34424;52.234;6.500;2024-02-28T07:30:06;102004.5;;;1.202461
48628;BMP280;34424;52.234;6.500;2024-02-28T07:35:06;102009.3;;;1.46125
48628;BMP280;34424;52.234;6.500;2024-02-28T07:40:06;102010.4;;;1.445625
48628;BMP280;34424;52.234;6.500;2024-02-28T07:45:06;102013.1;;;1.320039
48628;BMP280;34424;52.234;6.500;2024-02-28T07:50:06;102021.8;;;1.390547
48628;BMP280;34424;52.234;6.500;2024-02-28T07:55:06;102023.2;;;1.568477
48628;BMP280;34424;52.234;6.500;2024-02-28T08:00:06;102023.9;;;1.497773
48628;BMP280;34424;52.234;6.500;2024-02-28T08:05:06;102029.1;;;1.55793
48628;BMP280;34424;52.234;6.500;2024-02-28T08:10:06;102026.2;;;1.440352
48628;BMP280;34424;52.234;6.500;2024-02-28T08:15:06;102026.8;;;1.539766
48628;BMP280;34424;52.234;6.500;2024-02-28T08:20:06;102029;;;1.696602
48628;BMP280;34424;52.234;6.500;2024-02-28T08:25:06;102034.8;;;1.895234
48628;BMP280;34424;52.234;6.500;2024-02-28T08:30:06;102046;;;2.381562
48628;BMP280;34424;52.234;6.500;2024-02-28T08:35:06;102056.4;;;2.365937
48628;BMP280;34424;52.234;6.500;2024-02-28T08:40:16;102057.8;;;2.478242
48628;BMP280;34424;52.234;6.500;2024-02-28T08:45:15;102061.6;;;2.541133
48628;BMP280;34424;52.234;6.500;2024-02-28T08:50:14;102058.6;;;2.384102
48628;BMP280;34424;52.234;6.500;2024-02-28T08:55:14;102059.7;;;2.624727
48628;BMP280;34424;52.234;6.500;2024-02-28T09:00:14;102070.3;;;2.985469
48628;BMP280;34424;52.234;6.500;2024-02-28T09:05:14;102077.1;;;3.092695
48628;BMP280;34424;52.234;6.500;2024-02-28T09:10:13;102074.7;;;3.139766
48628;BMP280;34424;52.234;6.500;2024-02-28T09:15:13;102082.1;;;3.427461
48628;BMP280;34424;52.234;6.500;2024-02-28T09:20:13;102078.2;;;3.032539
48628;BMP280;34424;52.234;6.500;2024-02-28T09:25:13;102080.1;;;3.150312
48628;BMP280;34424;52.234;6.500;2024-02-28T09:30:11;102074.6;;;2.873164
48628;BMP280;34424;52.234;6.500;2024-02-28T09:35:12;102078.1;;;2.925313
48628;BMP280;34424;52.234;6.500;2024-02-28T09:40:12;102069.6;;;3.063984
48628;BMP280;34424;52.234;6.500;2024-02-28T09:45:12;102073.7;;;2.980391
48628;BMP280;34424;52.234;6.500;2024-02-28T09:50:10;102083.6;;;2.899336
48628;BMP280;34424;52.234;6.500;2024-02-28T09:55:09;102072.1;;;2.797383
48628;BMP280;34424;52.234;6.500;2024-02-28T10:00:10;102073.1;;;3.218281
48628;BMP280;34424;52.234;6.500;2024-02-28T10:05:10;102077.3;;;3.43
48628;BMP280;34424;52.234;6.500;2024-02-28T10:10:09;102076.2;;;3.435273
48628;BMP280;34424;52.234;6.500;2024-02-28T10:15:09;102078.9;;;3.958125
48628;BMP280;34424;52.234;6.500;2024-02-28T10:20:10;102080.3;;;3.958125
48628;BMP280;34424;52.234;6.500;2024-02-28T10:25:10;102084.5;;;3.903242
48628;BMP280;34424;52.234;6.500;2024-02-28T10:30:10;102092.5;;;3.955586
48628;BMP280;34424;52.234;6.500;2024-02-28T10:35:08;102092;;;4.00793
48628;BMP280;34424;52.234;6.500;2024-02-28T10:40:07;102093.2;;;3.850899
48628;BMP280;34424;52.234;6.500;2024-02-28T10:45:16;102088.5;;;3.819649
48628;BMP280;34424;52.234;6.500;2024-02-28T10:50:06;102090.2;;;3.963398
48628;BMP280;34424;52.234;6.500;2024-02-28T10:55:06;102081.9;;;4.227461
48628;BMP280;34424;52.234;6.500;2024-02-28T11:00:06;102084.6;;;4.313789
48628;BMP280;34424;52.234;6.500;2024-02-28T11:05:07;102079.8;;;4.460078
48628;BMP280;34424;52.234;6.500;2024-02-28T11:10:09;102079.6;;;4.847188
48628;BMP280;34424;52.234;6.500;2024-02-28T11:15:16;102072.9;;;5.024922
48628;BMP280;34424;52.234;6.500;2024-02-28T11:20:14;102066.5;;;5.124336
48628;BMP280;34424;52.234;6.500;2024-02-28T11:25:06;102062.3;;;5.001484
48628;BMP280;34424;52.234;6.500;2024-02-28T11:30:06;102057.4;;;5.675899
48628;BMP280;34424;52.234;6.500;2024-02-28T11:35:06;102052.4;;;6.146797
48628;BMP280;34424;52.234;6.500;2024-02-28T11:40:06;102049.4;;;6.301094
48628;BMP280;34424;52.234;6.500;2024-02-28T11:45:13;102052.1;;;6.48664
48628;BMP280;34424;52.234;6.500;2024-02-28T11:50:06;102046.6;;;6.515352
48628;BMP280;34424;52.234;6.500;2024-02-28T11:55:06;102039.4;;;6.912813
48628;BMP280;34424;52.234;6.500;2024-02-28T12:00:07;102038.5;;;6.844844
48628;BMP280;34424;52.234;6.500;2024-02-28T12:05:06;102032.8;;;6.544258
48628;BMP280;34424;52.234;6.500;2024-02-28T12:10:06;102024.8;;;6.572969
48628;BMP280;34424;52.234;6.500;2024-02-28T12:15:06;102028.8;;;6.912813
48628;BMP280;34424;52.234;6.500;2024-02-28T12:20:06;102021.3;;;6.625312
48628;BMP280;34424;52.234;6.500;2024-02-28T12:25:06;102012.1;;;6.850117
48628;BMP280;34424;52.234;6.500;2024-02-28T12:30:06;102009.9;;;7.06711
48628;BMP280;34424;52.234;6.500;2024-02-28T12:35:06;102007.6;;;7.14289
48628;BMP280;34424;52.234;6.500;2024-02-28T12:40:06;102007;;;6.842305
48628;BMP280;34424;52.234;6.500;2024-02-28T12:45:06;102005.2;;;6.484102
48628;BMP280;34424;52.234;6.500;2024-02-28T12:50:06;101997.5;;;6.36125
48628;BMP280;34424;52.234;6.500;2024-02-28T12:55:06;102002;;;6.497188
48628;BMP280;34424;52.234;6.500;2024-02-28T13:00:06;101993.9;;;6.688008
48628;BMP280;34424;52.234;6.500;2024-02-28T13:05:06;101996.7;;;6.661836
48628;BMP280;34424;52.234;6.500;2024-02-28T13:10:06;101996;;;6.355977
48628;BMP280;34424;52.234;6.500;2024-02-28T13:15:06;101994.7;;;6.371602
48628;BMP280;34424;52.234;6.500;2024-02-28T13:20:06;101986.1;;;6.55207
48628;BMP280;34424;52.234;6.500;2024-02-28T13:25:06;101983.8;;;6.369062
48628;BMP280;34424;52.234;6.500;2024-02-28T13:30:06;101980.2;;;6.45793
48628;BMP280;34424;52.234;6.500;2024-02-28T13:35:06;101980.5;;;6.172969
48628;BMP280;34424;52.234;6.500;2024-02-28T13:40:06;101984.9;;;6.285274
48628;BMP280;34424;52.234;6.500;2024-02-28T13:45:06;101973.2;;;6.363789
48628;BMP280;34424;52.234;6.500;2024-02-28T13:50:06;101976.8;;;6.588594
48628;BMP280;34424;52.234;6.500;2024-02-28T13:55:06;101965.2;;;6.413398
48628;BMP280;34424;52.234;6.500;2024-02-28T14:00:06;101960.8;;;6.280195
48628;BMP280;34424;52.234;6.500;2024-02-28T14:05:06;101958.8;;;6.497188
48628;BMP280;34424;52.234;6.500;2024-02-28T14:10:06;101953.3;;;6.389961
48628;BMP280;34424;52.234;6.500;2024-02-28T14:15:06;101952.5;;;6.277461
48628;BMP280;34424;52.234;6.500;2024-02-28T14:20:06;101950.9;;;6.264375
48628;BMP280;34424;52.234;6.500;2024-02-28T14:25:06;101946.1;;;6.144258
48628;BMP280;34424;52.234;6.500;2024-02-28T14:30:07;101947.2;;;6.311445
48628;BMP280;34424;52.234;6.500;2024-02-28T14:35:06;101941.4;;;6.389961
48628;BMP280;34424;52.234;6.500;2024-02-28T14:40:06;101936.9;;;6.212226
48628;BMP280;34424;52.234;6.500;2024-02-28T14:45:06;101940.5;;;6.222578
48628;BMP280;34424;52.234;6.500;2024-02-28T14:50:06;101936.4;;;6.206953
48628;BMP280;34424;52.234;6.500;2024-02-28T14:55:07;101939.4;;;6.243476
48628;BMP280;34424;52.234;6.500;2024-02-28T15:00:06;101928.4;;;6.159883
48628;BMP280;34424;52.234;6.500;2024-02-28T15:05:06;101927.9;;;6.288008
48628;BMP280;34424;52.234;6.500;2024-02-28T15:10:06;101920.2;;;6.24875
48628;BMP280;34424;52.234;6.500;2024-02-28T15:15:06;101918.7;;;6.165156
48628;BMP280;34424;52.234;6.500;2024-02-28T15:20:06;101910.4;;;6.084102
48628;BMP280;34424;52.234;6.500;2024-02-28T15:25:06;101915.2;;;5.984492
48628;BMP280;34424;52.234;6.500;2024-02-28T15:30:06;101915.3;;;6.154609
48628;BMP280;34424;52.234;6.500;2024-02-28T15:35:06;101910.7;;;6.102266
48628;BMP280;34424;52.234;6.500;2024-02-28T15:40:06;101907.6;;;6.212226
48628;BMP280;34424;52.234;6.500;2024-02-28T15:45:06;101907.3;;;6.144258
48628;BMP280;34424;52.234;6.500;2024-02-28T15:50:06;101899.5;;;6.172969
48628;BMP280;34424;52.234;6.500;2024-02-28T15:55:06;101889.2;;;6.285274
48628;BMP280;34424;52.234;6.500;2024-02-28T16:00:06;101880.1;;;6.152071
48628;BMP280;34424;52.234;6.500;2024-02-28T16:05:06;101877.4;;;5.960859
48628;BMP280;34424;52.234;6.500;2024-02-28T16:10:06;101874.5;;;5.78586
48628;BMP280;34424;52.234;6.500;2024-02-28T16:15:06;101884.5;;;5.806758
48628;BMP280;34424;52.234;6.500;2024-02-28T16:20:06;101874.5;;;5.681172
48628;BMP280;34424;52.234;6.500;2024-02-28T16:25:06;101872.7;;;5.704805
48628;BMP280;34424;52.234;6.500;2024-02-28T16:30:06;101857.9;;;5.647188
48628;BMP280;34424;52.234;6.500;2024-02-28T16:35:06;101859.1;;;5.500703
48628;BMP280;34424;52.234;6.500;2024-02-28T16:40:06;101850.3;;;5.448555
48628;BMP280;34424;52.234;6.500;2024-02-28T16:45:06;101844.8;;;5.309883
48628;BMP280;34424;52.234;6.500;2024-02-28T16:50:06;101841.6;;;5.278633
48628;BMP280;34424;52.234;6.500;2024-02-28T16:55:06;101842.5;;;5.20539
48628;BMP280;34424;52.234;6.500;2024-02-28T17:00:06;101848.3;;;5.121602
48628;BMP280;34424;52.234;6.500;2024-02-28T17:05:07;101840.8;;;5.129414
48628;BMP280;34424;52.234;6.500;2024-02-28T17:10:06;101837.3;;;5.006563
48628;BMP280;34424;52.234;6.500;2024-02-28T17:15:06;101847.9;;;4.993476
48628;BMP280;34424;52.234;6.500;2024-02-28T17:20:06;101846.8;;;4.990938
48628;BMP280;34424;52.234;6.500;2024-02-28T17:25:06;101839.3;;;4.970039
48628;BMP280;34424;52.234;6.500;2024-02-28T17:30:07;101834.9;;;4.962226
48628;BMP280;34424;52.234;6.500;2024-02-28T17:35:06;101840.6;;;4.95168
48628;BMP280;34424;52.234;6.500;2024-02-28T17:40:06;101846.8;;;5.053633
48628;BMP280;34424;52.234;6.500;2024-02-28T17:45:06;101832.9;;;5.137422
48628;BMP280;34424;52.234;6.500;2024-02-28T17:50:06;101833.6;;;5.210469
48628;BMP280;34424;52.234;6.500;2024-02-28T17:55:06;101832.1;;;5.223555
48628;BMP280;34424;52.234;6.500;2024-02-28T18:00:06;101832.9;;;5.296797
48628;BMP280;34424;52.234;6.500;2024-02-28T18:05:06;101838.4;;;5.296797
48628;BMP280;34424;52.234;6.500;2024-02-28T18:10:06;101834.3;;;5.333516
48628;BMP280;34424;52.234;6.500;2024-02-28T18:15:06;101821.8;;;5.315156
48628;BMP280;34424;52.234;6.500;2024-02-28T18:20:06;101808.1;;;5.309883
48628;BMP280;34424;52.234;6.500;2024-02-28T18:25:06;101793;;;5.265547
48628;BMP280;34424;52.234;6.500;2024-02-28T18:30:06;101803.2;;;5.126875
48628;BMP280;34424;52.234;6.500;2024-02-28T18:35:06;101791.5;;;5.103437
48628;BMP280;34424;52.234;6.500;2024-02-28T18:40:06;101782.5;;;5.132148
48628;BMP280;34424;52.234;6.500;2024-02-28T18:45:06;101786.9;;;4.949141
48628;BMP280;34424;52.234;6.500;2024-02-28T18:50:06;101793;;;4.828828
48628;BMP280;34424;52.234;6.500;2024-02-28T18:55:06;101788.6;;;4.857539
48628;BMP280;34424;52.234;6.500;2024-02-28T19:00:07;101784.9;;;4.690352
48628;BMP280;34424;52.234;6.500;2024-02-28T19:05:06;101782.9;;;4.635273
48628;BMP280;34424;52.234;6.500;2024-02-28T19:10:06;101780.3;;;4.773945
48628;BMP280;34424;52.234;6.500;2024-02-28T19:15:07;101759.4;;;4.794844
48628;BMP280;34424;52.234;6.500;2024-02-28T19:20:06;101755.3;;;4.705977
48628;BMP280;34424;52.234;6.500;2024-02-28T19:25:06;101763.4;;;4.609297
48628;BMP280;34424;52.234;6.500;2024-02-28T19:30:07;101754.6;;;4.397383
48628;BMP280;34424;52.234;6.500;2024-02-28T19:35:06;101747.7;;;4.311055
48628;BMP280;34424;52.234;6.500;2024-02-28T19:40:07;101743.8;;;4.156953
48628;BMP280;34424;52.234;6.500;2024-02-28T19:45:07;101733.9;;;3.963398
48628;BMP280;34424;52.234;6.500;2024-02-28T19:50:07;101733.8;;;3.814375
48628;BMP280;34424;52.234;6.500;2024-02-28T19:55:06;101727.8;;;3.75168
48628;BMP280;34424;52.234;6.500;2024-02-28T20:00:06;101727.3;;;3.707149
48628;BMP280;34424;52.234;6.500;2024-02-28T20:05:06;101721.6;;;3.594648
48628;BMP280;34424;52.234;6.500;2024-02-28T20:10:06;101718;;;3.484883
48628;BMP280;34424;52.234;6.500;2024-02-28T20:15:06;101725.2;;;3.453633
48628;BMP280;34424;52.234;6.500;2024-02-28T20:20:06;101727;;;3.396016
48628;BMP280;34424;52.234;6.500;2024-02-28T20:25:07;101725.9;;;3.28625
48628;BMP280;34424;52.234;6.500;2024-02-28T20:30:06;101721.8;;;3.186836
48628;BMP280;34424;52.234;6.500;2024-02-28T20:35:06;101720.8;;;3.092695
48628;BMP280;34424;52.234;6.500;2024-02-28T20:40:07;101718;;;2.967305
48628;BMP280;34424;52.234;6.500;2024-02-28T20:45:06;101717;;;2.841719
48628;BMP280;34424;52.234;6.500;2024-02-28T20:50:07;101720.8;;;2.77375
48628;BMP280;34424;52.234;6.500;2024-02-28T20:55:06;101704.9;;;2.79211
48628;BMP280;34424;52.234;6.500;2024-02-28T21:00:07;101693.7;;;2.805195
48628;BMP280;34424;52.234;6.500;2024-02-28T21:05:06;101685.1;;;3.113594
48628;BMP280;34424;52.234;6.500;2024-02-28T21:10:06;101682.2;;;3.482344
48628;BMP280;34424;52.234;6.500;2024-02-28T21:15:07;101677.2;;;3.814375
48628;BMP280;34424;52.234;6.500;2024-02-28T21:20:06;101676.2;;;4.057539
48628;BMP280;34424;52.234;6.500;2024-02-28T21:25:06;101666.2;;;4.373945
48628;BMP280;34424;52.234;6.500;2024-02-28T21:30:07;101668;;;4.517695
48628;BMP280;34424;52.234;6.500;2024-02-28T21:35:06;101661;;;4.671992
48628;BMP280;34424;52.234;6.500;2024-02-28T21:40:06;101649.8;;;4.818281
48628;BMP280;34424;52.234;6.500;2024-02-28T21:45:06;101643;;;4.909883
48628;BMP280;34424;52.234;6.500;2024-02-28T21:50:07;101646.8;;;4.996211
48628;BMP280;34424;52.234;6.500;2024-02-28T21:55:06;101638.2;;;5.09543
48628;BMP280;34424;52.234;6.500;2024-02-28T22:00:07;101626.6;;;4.996211
48628;BMP280;34424;52.234;6.500;2024-02-28T22:05:06;101628.6;;;4.818281
48628;BMP280;34424;52.234;6.500;2024-02-28T22:10:07;101629.2;;;4.609297
48628;BMP280;34424;52.234;6.500;2024-02-28T22:15:07;101624;;;4.517695
48628;BMP280;34424;52.234;6.500;2024-02-28T22:20:06;101614.3;;;4.387031
48628;BMP280;34424;52.234;6.500;2024-02-28T22:25:07;101608.4;;;4.180391
48628;BMP280;34424;52.234;6.500;2024-02-28T22:30:07;101603.7;;;3.994844
48628;BMP280;34424;52.234;6.500;2024-02-28T22:35:06;101602.8;;;3.819649
48628;BMP280;34424;52.234;6.500;2024-02-28T22:40:07;101599.7;;;3.704609
48628;BMP280;34424;52.234;6.500;2024-02-28T22:45:07;101591.6;;;3.646992
48628;BMP280;34424;52.234;6.500;2024-02-28T22:50:07;101585.3;;;3.531953
48628;BMP280;34424;52.234;6.500;2024-02-28T22:55:07;101579.9;;;3.49543
48628;BMP280;34424;52.234;6.500;2024-02-28T23:00:07;101569.3;;;3.414375
48628;BMP280;34424;52.234;6.500;2024-02-28T23:05:06;101567.3;;;3.354219
48628;BMP280;34424;52.234;6.500;2024-02-28T23:10:06;101555.5;;;3.422188
48628;BMP280;34424;52.234;6.500;2024-02-28T23:15:07;101548.2;;;3.466719
48628;BMP280;34424;52.234;6.500;2024-02-28T23:20:07;101541.7;;;3.484883
48628;BMP280;34424;52.234;6.500;2024-02-28T23:25:06;101541;;;3.466719
48628;BMP280;34424;52.234;6.500;2024-02-28T23:30:07;101535.8;;;3.458711
48628;BMP280;34424;52.234;6.500;2024-02-28T23:35:07;101533.8;;;3.469258
48628;BMP280;34424;52.234;6.500;2024-02-28T23:40:07;101529.7;;;3.432539
48628;BMP280;34424;52.234;6.500;2024-02-28T23:45:07;101531.8;;;3.440547
48628;BMP280;34424;52.234;6.500;2024-02-28T23:50:07;101519;;;3.463985
48628;BMP280;34424;52.234;6.500;2024-02-28T23:55:06;101519.3;;;3.44836
